createdAt,value
2022-09-12T00:01:28.415Z,11.71
2022-09-12T00:03:58.132Z,11.68
2022-09-12T00:06:30.184Z,11.68
2022-09-12T00:08:59.478Z,11.66
2022-09-12T00:11:26.729Z,11.65
2022-09-12T00:13:57.369Z,11.63
2022-09-12T00:16:25.853Z,11.63
2022-09-12T00:18:53.265Z,11.64
2022-09-12T00:21:21.494Z,11.63
2022-09-12T00:23:48.765Z,11.63
2022-09-12T00:26:15.599Z,11.62
2022-09-12T00:28:42.424Z,11.57
2022-09-12T00:31:12.477Z,11.54
2022-09-12T00:33:39.740Z,11.49
2022-09-12T00:36:09.281Z,11.48
2022-09-12T00:38:38.549Z,11.48
2022-09-12T00:41:06.256Z,11.46
2022-09-12T00:43:42.173Z,11.40
2022-09-12T00:46:36.333Z,11.36
2022-09-12T00:49:02.685Z,11.30
2022-09-12T00:51:32.116Z,11.31
2022-09-12T00:54:00.712Z,11.26
2022-09-12T00:56:27.947Z,11.25
2022-09-12T00:59:05.210Z,11.24
2022-09-12T01:01:32.800Z,11.21
2022-09-12T01:03:59.882Z,11.21
2022-09-12T01:06:30.341Z,11.19
2022-09-12T01:08:57.605Z,11.16
2022-09-12T01:11:23.973Z,11.17
2022-09-12T01:13:50.801Z,11.16
2022-09-12T01:16:17.743Z,11.13
2022-09-12T01:19:20.182Z,11.13
2022-09-12T01:22:14.238Z,11.12
2022-09-12T01:25:18.252Z,11.11
2022-09-12T01:28:25.202Z,11.10
2022-09-12T01:31:20.315Z,11.05
2022-09-12T01:34:01.982Z,11.04
2022-09-12T01:36:36.189Z,11.03
2022-09-12T01:39:05.770Z,11.05
2022-09-12T01:41:53.867Z,11.03
2022-09-12T01:44:40.303Z,11.01
2022-09-12T01:47:17.066Z,10.99
2022-09-12T01:50:02.333Z,10.97
2022-09-12T01:52:58.052Z,10.96
2022-09-12T01:55:33.693Z,10.93
2022-09-12T01:58:06.326Z,10.92
2022-09-12T02:00:37.732Z,10.89
2022-09-12T02:03:26.874Z,10.84
2022-09-12T02:05:59.820Z,10.81
2022-09-12T02:08:31.540Z,10.76
2022-09-12T02:11:03.484Z,10.67
2022-09-12T02:13:39.215Z,10.65
2022-09-12T02:16:23.942Z,10.61
2022-09-12T02:18:54.994Z,10.58
2022-09-12T02:21:24.562Z,10.59
2022-09-12T02:23:56.759Z,10.57
2022-09-12T02:26:36.728Z,10.54
2022-09-12T02:29:04.697Z,10.56
2022-09-12T02:31:42.702Z,10.54
2022-09-12T02:34:24.211Z,10.53
2022-09-12T02:37:09.430Z,10.50
2022-09-12T02:39:36.248Z,10.45
2022-09-12T02:42:03.831Z,10.42
2022-09-12T02:44:31.493Z,10.42
2022-09-12T02:47:10.810Z,10.39
2022-09-12T02:49:37.447Z,10.45
2022-09-12T02:52:04.074Z,10.44
2022-09-12T02:54:31.141Z,10.42
2022-09-12T02:56:57.841Z,10.37
2022-09-12T02:59:25.436Z,10.32
2022-09-12T03:02:20.144Z,10.31
2022-09-12T03:04:48.799Z,10.27
2022-09-12T03:07:43.286Z,10.26
2022-09-12T03:10:44.535Z,10.24
2022-09-12T03:13:33.051Z,10.18
2022-09-12T03:16:16.085Z,10.14
2022-09-12T03:19:11.965Z,10.12
2022-09-12T03:21:53.417Z,10.09
2022-09-12T03:24:38.048Z,10.05
2022-09-12T03:27:14.836Z,10.02
2022-09-12T03:29:43.277Z,9.96
2022-09-12T03:32:10.079Z,9.94
2022-09-12T03:34:36.530Z,9.91
2022-09-12T03:37:03.422Z,9.88
2022-09-12T03:39:29.883Z,9.90
2022-09-12T03:41:56.401Z,9.92
2022-09-12T03:44:23.644Z,9.90
2022-09-12T03:46:50.664Z,9.88
2022-09-12T03:49:17.601Z,9.89
2022-09-12T03:51:44.224Z,9.93
2022-09-12T03:54:11.046Z,9.96
2022-09-12T03:56:37.741Z,9.95
2022-09-12T03:59:07.372Z,9.96
2022-09-12T04:01:34.335Z,9.96
2022-09-12T04:04:00.928Z,9.95
2022-09-12T04:06:27.422Z,9.98
2022-09-12T04:08:55.193Z,9.98
2022-09-12T04:11:22.913Z,9.99
2022-09-12T04:13:51.004Z,10.03
2022-09-12T04:16:18.616Z,10.03
2022-09-12T04:18:45.793Z,10.04
2022-09-12T04:21:15.913Z,10.07
2022-09-12T04:23:43.125Z,10.11
2022-09-12T04:26:10.102Z,10.11
2022-09-12T04:28:38.343Z,10.09
2022-09-12T04:31:07.897Z,10.10
2022-09-12T04:33:35.838Z,10.12
2022-09-12T04:36:07.718Z,10.06
2022-09-12T04:38:35.807Z,10.04
2022-09-12T04:41:20.742Z,10.04
2022-09-12T04:43:48.380Z,10.02
2022-09-12T04:46:19.752Z,10.01
2022-09-12T04:48:47.537Z,10.01
2022-09-12T04:51:22.711Z,10.02
2022-09-12T04:53:52.242Z,10.01
2022-09-12T04:56:19.731Z,10.01
2022-09-12T04:58:46.831Z,9.99
2022-09-12T05:01:16.310Z,9.99
2022-09-12T05:03:44.350Z,9.96
2022-09-12T05:06:14.483Z,10.02
2022-09-12T05:08:41.680Z,9.99
2022-09-12T05:11:11.543Z,9.95
2022-09-12T05:13:38.910Z,9.95
2022-09-12T05:16:06.487Z,9.95
2022-09-12T05:18:34.695Z,9.94
2022-09-12T05:21:02.733Z,9.97
2022-09-12T05:23:29.703Z,10.01
2022-09-12T05:25:57.934Z,10.05
2022-09-12T05:28:28.295Z,10.04
2022-09-12T05:31:02.249Z,10.07
2022-09-12T05:33:29.524Z,10.07
2022-09-12T05:35:56.009Z,10.12
2022-09-12T05:38:25.000Z,10.18
2022-09-12T05:40:52.155Z,10.25
2022-09-12T05:43:20.294Z,10.35
2022-09-12T05:45:46.726Z,10.32
2022-09-12T05:48:13.546Z,10.46
2022-09-12T05:50:39.965Z,10.50
2022-09-12T05:53:06.424Z,10.48
2022-09-12T05:55:33.179Z,10.54
2022-09-12T05:57:59.592Z,10.51
2022-09-12T06:00:27.592Z,10.55
2022-09-12T06:02:56.875Z,10.66
2022-09-12T06:05:23.277Z,10.79
2022-09-12T06:07:49.710Z,10.90
2022-09-12T06:10:16.161Z,10.93
2022-09-12T06:12:43.699Z,10.99
2022-09-12T06:15:10.586Z,11.12
2022-09-12T06:17:37.011Z,11.27
2022-09-12T06:20:04.081Z,11.35
2022-09-12T06:22:31.630Z,11.37
2022-09-12T06:24:58.232Z,11.43
2022-09-12T06:27:24.683Z,11.50
2022-09-12T06:29:51.168Z,11.58
2022-09-12T06:32:17.566Z,11.64
2022-09-12T06:34:44.099Z,11.75
2022-09-12T06:37:10.728Z,11.75
2022-09-12T06:39:38.382Z,11.84
2022-09-12T06:42:05.030Z,11.81
2022-09-12T06:44:31.641Z,11.90
2022-09-12T06:46:58.751Z,12.01
2022-09-12T06:49:25.210Z,12.04
2022-09-12T06:51:51.649Z,12.01
2022-09-12T06:54:18.156Z,12.09
2022-09-12T06:56:44.856Z,12.15
2022-09-12T06:59:11.395Z,12.24
2022-09-12T07:01:38.212Z,12.35
2022-09-12T07:04:05.039Z,12.47
2022-09-12T07:06:36.904Z,12.62
2022-09-12T07:09:06.109Z,12.67
2022-09-12T07:11:35.054Z,12.78
2022-09-12T07:14:03.671Z,12.82
2022-09-12T07:16:30.599Z,12.86
2022-09-12T07:18:59.463Z,12.95
2022-09-12T07:21:27.479Z,13.06
2022-09-12T07:24:02.962Z,13.17
2022-09-12T07:26:30.479Z,13.33
2022-09-12T07:29:18.747Z,13.40
2022-09-12T07:31:45.081Z,13.62
2022-09-12T07:34:11.620Z,13.56
2022-09-12T07:36:39.179Z,13.64
2022-09-12T07:39:05.959Z,13.68
2022-09-12T07:41:35.697Z,13.72
2022-09-12T07:44:03.357Z,13.71
2022-09-12T07:46:31.455Z,13.84
2022-09-12T07:49:00.069Z,13.98
2022-09-12T07:51:28.863Z,14.05
2022-09-12T07:53:56.309Z,14.03
2022-09-12T07:56:27.331Z,14.10
2022-09-12T07:58:56.834Z,14.31
2022-09-12T08:01:23.567Z,14.46
2022-09-12T08:03:54.914Z,14.50
2022-09-12T08:06:25.652Z,14.60
2022-09-12T08:08:54.874Z,14.66
2022-09-12T08:11:22.521Z,14.69
2022-09-12T08:13:54.829Z,14.97
2022-09-12T08:16:23.871Z,14.92
2022-09-12T08:18:50.499Z,15.17
2022-09-12T08:21:22.153Z,15.22
2022-09-12T08:23:53.990Z,15.40
2022-09-12T08:26:20.503Z,15.49
2022-09-12T08:28:47.375Z,15.65
2022-09-12T08:31:16.703Z,15.68
2022-09-12T08:33:43.420Z,15.78
2022-09-12T08:36:15.781Z,16.06
2022-09-12T08:38:44.618Z,16.14
2022-09-12T08:41:35.253Z,16.20
2022-09-12T08:44:04.443Z,16.67
2022-09-12T08:46:49.935Z,17.07
2022-09-12T08:49:54.264Z,17.36
2022-09-12T08:52:37.384Z,17.94
2022-09-12T08:55:06.638Z,18.59
2022-09-12T08:57:33.506Z,19.65
2022-09-12T09:00:04.411Z,20.05
2022-09-12T09:02:43.743Z,20.37
2022-09-12T09:05:16.215Z,20.66
2022-09-12T09:08:06.301Z,21.47
2022-09-12T09:10:39.792Z,21.71
2022-09-12T09:13:56.393Z,22.06
2022-09-12T09:16:48.149Z,22.88
2022-09-12T09:19:23.831Z,22.82
2022-09-12T09:22:11.954Z,22.93
2022-09-12T09:24:55.324Z,22.91
2022-09-12T09:27:40.846Z,22.66
2022-09-12T09:30:17.304Z,22.56
2022-09-12T09:32:47.571Z,22.68
2022-09-12T09:35:25.710Z,22.52
2022-09-12T09:38:04.687Z,22.22
2022-09-12T09:41:03.591Z,22.11
2022-09-12T09:43:30.295Z,21.94
2022-09-12T09:45:59.296Z,22.02
2022-09-12T09:48:31.845Z,22.07
2022-09-12T09:51:03.819Z,21.93
2022-09-12T09:53:52.992Z,21.93
2022-09-12T09:56:28.244Z,21.84
2022-09-12T09:58:55.108Z,21.72
2022-09-12T10:01:21.656Z,21.78
2022-09-12T10:03:53.803Z,21.80
2022-09-12T10:06:20.727Z,22.05
2022-09-12T10:08:48.825Z,22.24
2022-09-12T10:11:15.149Z,22.30
2022-09-12T10:14:04.507Z,22.40
2022-09-12T10:16:48.775Z,22.43
2022-09-12T10:19:24.632Z,22.42
2022-09-12T10:21:54.538Z,22.39
2022-09-12T10:24:28.772Z,22.53
2022-09-12T10:27:05.817Z,22.57
2022-09-12T10:29:36.526Z,22.57
2022-09-12T10:32:08.665Z,22.62
2022-09-12T10:34:40.828Z,22.59
2022-09-12T10:37:10.880Z,22.66
2022-09-12T10:39:38.855Z,22.86
2022-09-12T10:42:05.761Z,22.97
2022-09-12T10:44:34.556Z,23.05
2022-09-12T10:47:20.593Z,23.02
2022-09-12T10:49:46.989Z,22.91
2022-09-12T10:52:21.627Z,22.85
2022-09-12T10:54:47.998Z,22.79
2022-09-12T10:57:31.414Z,22.75
2022-09-12T11:00:18.152Z,22.77
2022-09-12T11:02:52.240Z,22.83
2022-09-12T11:06:01.596Z,23.16
2022-09-12T11:08:44.758Z,23.14
2022-09-12T11:11:13.859Z,23.41
2022-09-12T11:13:52.437Z,23.32
2022-09-12T11:16:57.021Z,23.23
2022-09-12T11:19:48.223Z,23.22
2022-09-12T11:22:32.043Z,23.23
2022-09-12T11:25:20.138Z,23.11
2022-09-12T11:27:56.791Z,23.12
2022-09-12T11:30:23.284Z,22.96
2022-09-12T11:32:57.086Z,22.86
2022-09-12T11:35:32.436Z,22.85
2022-09-12T11:38:08.868Z,23.13
2022-09-12T11:40:50.419Z,23.04
2022-09-12T11:43:39.632Z,23.11
2022-09-12T11:46:23.825Z,23.19
2022-09-12T11:49:00.919Z,23.35
2022-09-12T11:51:46.030Z,23.17
2022-09-12T11:54:34.632Z,23.21
2022-09-12T11:57:12.568Z,23.21
2022-09-12T11:59:52.720Z,23.16
2022-09-12T12:02:31.214Z,22.95
2022-09-12T12:05:16.492Z,23.12
2022-09-12T12:07:52.444Z,23.23
2022-09-12T12:10:26.632Z,23.03
2022-09-12T12:12:54.003Z,22.99
2022-09-12T12:15:22.484Z,22.94
2022-09-12T12:18:04.629Z,22.93
2022-09-12T12:20:31.192Z,23.10
2022-09-12T12:22:57.742Z,22.85
2022-09-12T12:25:38.578Z,22.71
2022-09-12T12:28:06.514Z,22.97
2022-09-12T12:30:33.554Z,23.18
2022-09-12T12:33:00.934Z,22.92
2022-09-12T12:35:46.230Z,22.82
2022-09-12T12:38:40.393Z,23.00
2022-09-12T12:41:18.792Z,23.19
2022-09-12T12:43:53.574Z,23.21
2022-09-12T12:46:25.254Z,23.31
2022-09-12T12:48:57.335Z,23.24
2022-09-12T12:51:31.021Z,23.13
2022-09-12T12:54:00.388Z,23.18
2022-09-12T12:56:38.981Z,23.15
2022-09-12T12:59:16.248Z,23.17
2022-09-12T13:01:54.238Z,23.05
2022-09-12T13:04:24.968Z,22.92
2022-09-12T13:07:07.645Z,22.96
2022-09-12T13:09:45.635Z,23.21
2022-09-12T13:12:21.301Z,23.30
2022-09-12T13:14:56.677Z,23.31
2022-09-12T13:17:31.754Z,23.30
2022-09-12T13:20:27.989Z,23.19
2022-09-12T13:22:55.356Z,23.10
2022-09-12T13:25:27.256Z,23.16
2022-09-12T13:28:18.470Z,23.30
2022-09-12T13:30:59.910Z,23.13
2022-09-12T13:33:26.643Z,23.18
2022-09-12T13:35:58.784Z,23.32
2022-09-12T13:38:43.089Z,23.32
2022-09-12T13:41:41.581Z,23.28
2022-09-12T13:44:15.038Z,23.16
2022-09-12T13:46:41.761Z,23.25
2022-09-12T13:49:33.696Z,23.17
2022-09-12T13:52:04.805Z,23.15
2022-09-12T13:54:33.715Z,22.98
2022-09-12T13:57:00.549Z,22.94
2022-09-12T13:59:27.032Z,22.87
2022-09-12T14:01:53.596Z,22.93
2022-09-12T14:04:42.373Z,22.79
2022-09-12T14:07:20.231Z,22.82
2022-09-12T14:09:54.917Z,22.70
2022-09-12T14:12:43.814Z,22.55
2022-09-12T14:15:24.523Z,22.46
2022-09-12T14:17:54.726Z,22.42
2022-09-12T14:20:23.528Z,22.23
2022-09-12T14:22:53.657Z,22.00
2022-09-12T14:25:25.755Z,22.03
2022-09-12T14:27:54.771Z,21.93
2022-09-12T14:30:32.504Z,21.99
2022-09-12T14:33:17.882Z,21.89
2022-09-12T14:35:50.749Z,21.85
2022-09-12T14:38:17.701Z,22.00
2022-09-12T14:41:09.103Z,21.75
2022-09-12T14:43:47.240Z,21.70
2022-09-12T14:46:34.253Z,21.70
2022-09-12T14:49:18.760Z,21.60
2022-09-12T14:52:21.883Z,21.89
2022-09-12T14:55:02.796Z,21.77
2022-09-12T14:57:39.272Z,21.76
2022-09-12T15:00:17.815Z,21.75
2022-09-12T15:02:44.805Z,21.73
2022-09-12T15:05:11.195Z,21.70
2022-09-12T15:07:59.504Z,21.64
2022-09-12T15:10:35.142Z,21.72
2022-09-12T15:13:04.664Z,21.70
2022-09-12T15:15:31.715Z,21.76
2022-09-12T15:17:59.933Z,21.78
2022-09-12T15:20:28.887Z,21.73
2022-09-12T15:22:55.419Z,21.74
2022-09-12T15:25:21.823Z,21.83
2022-09-12T15:27:52.001Z,21.83
2022-09-12T15:30:18.597Z,21.67
2022-09-12T15:32:45.609Z,21.56
2022-09-12T15:35:23.678Z,21.65
2022-09-12T15:37:50.735Z,21.57
2022-09-12T15:40:17.906Z,21.56
2022-09-12T15:42:44.510Z,21.48
2022-09-12T15:45:23.717Z,21.45
2022-09-12T15:47:50.119Z,21.33
2022-09-12T15:50:16.732Z,21.35
2022-09-12T15:52:43.232Z,21.32
2022-09-12T15:55:18.272Z,21.18
2022-09-12T15:57:45.743Z,21.12
2022-09-12T16:00:14.223Z,21.03
2022-09-12T16:02:40.694Z,20.91
2022-09-12T16:05:13.985Z,20.86
2022-09-12T16:07:40.432Z,20.83
2022-09-12T16:10:08.625Z,20.84
2022-09-12T16:12:35.089Z,20.72
2022-09-12T16:15:02.285Z,20.75
2022-09-12T16:17:28.658Z,20.68
2022-09-12T16:19:55.047Z,20.70
2022-09-12T16:22:21.512Z,20.60
2022-09-12T16:24:47.912Z,20.62
2022-09-12T16:27:14.657Z,20.60
2022-09-12T16:29:41.353Z,20.58
2022-09-12T16:32:07.775Z,20.53
2022-09-12T16:34:34.263Z,20.46
2022-09-12T16:37:01.793Z,20.44
2022-09-12T16:39:28.215Z,20.35
2022-09-12T16:41:54.635Z,20.35
2022-09-12T16:44:21.076Z,20.28
2022-09-12T16:46:47.559Z,20.24
2022-09-12T16:49:14.098Z,20.23
2022-09-12T16:51:43.850Z,20.21
2022-09-12T16:54:10.699Z,20.18
2022-09-12T16:56:37.191Z,20.10
2022-09-12T16:59:05.226Z,19.99
2022-09-12T17:01:31.653Z,19.81
2022-09-12T17:03:58.743Z,19.73
2022-09-12T17:06:26.631Z,19.65
2022-09-12T17:08:54.924Z,19.56
2022-09-12T17:11:24.638Z,19.37
2022-09-12T17:14:04.337Z,19.27
2022-09-12T17:16:34.234Z,19.14
2022-09-12T17:19:00.952Z,18.95
2022-09-12T17:21:27.500Z,18.77
2022-09-12T17:23:54.261Z,18.70
2022-09-12T17:26:21.017Z,18.55
2022-09-12T17:28:48.165Z,18.42
2022-09-12T17:31:15.111Z,18.29
2022-09-12T17:33:42.066Z,18.16
2022-09-12T17:36:15.386Z,18.09
2022-09-12T17:38:43.606Z,17.96
2022-09-12T17:41:17.266Z,17.83
2022-09-12T17:43:48.972Z,17.72
2022-09-12T17:46:15.752Z,17.61
2022-09-12T17:48:42.456Z,17.52
2022-09-12T17:51:11.287Z,17.45
2022-09-12T17:53:38.219Z,17.35
2022-09-12T17:56:06.157Z,17.28
2022-09-12T17:58:33.895Z,17.24
2022-09-12T18:01:20.479Z,17.16
2022-09-12T18:03:47.088Z,17.05
2022-09-12T18:06:14.951Z,17.04
2022-09-12T18:08:41.575Z,16.94
2022-09-12T18:11:08.252Z,16.89
2022-09-12T18:13:34.986Z,16.80
2022-09-12T18:16:10.295Z,16.71
2022-09-12T18:18:37.080Z,16.71
2022-09-12T18:21:05.542Z,16.70
2022-09-12T18:23:32.640Z,16.62
2022-09-12T18:26:08.595Z,16.59
2022-09-12T18:28:37.195Z,16.52
2022-09-12T18:31:04.981Z,16.52
2022-09-12T18:33:32.128Z,16.56
2022-09-12T18:36:04.004Z,16.52
2022-09-12T18:38:31.121Z,16.50
2022-09-12T18:41:08.607Z,16.42
2022-09-12T18:43:35.140Z,16.36
2022-09-12T18:46:06.518Z,16.32
2022-09-12T18:48:33.777Z,16.31
2022-09-12T18:51:11.248Z,16.29
2022-09-12T18:53:38.881Z,16.27
2022-09-12T18:56:10.247Z,16.26
2022-09-12T18:58:42.585Z,16.20
2022-09-12T19:01:17.753Z,16.15
2022-09-12T19:03:45.479Z,16.09
2022-09-12T19:06:18.469Z,16.07
2022-09-12T19:08:45.641Z,16.07
2022-09-12T19:11:13.133Z,15.99
2022-09-12T19:13:42.074Z,15.99
2022-09-12T19:16:10.742Z,16.01
2022-09-12T19:18:38.518Z,15.94
2022-09-12T19:21:06.179Z,15.94
2022-09-12T19:23:34.140Z,15.89
2022-09-12T19:26:08.469Z,15.85
2022-09-12T19:28:35.404Z,15.84
2022-09-12T19:31:16.863Z,15.81
2022-09-12T19:33:44.626Z,15.83
2022-09-12T19:36:34.039Z,15.83
2022-09-12T19:39:00.631Z,15.82
2022-09-12T19:41:27.164Z,15.85
2022-09-12T19:43:57.054Z,15.87
2022-09-12T19:46:25.648Z,15.89
2022-09-12T19:48:54.993Z,15.87
2022-09-12T19:51:22.400Z,15.89
2022-09-12T19:53:50.241Z,15.87
2022-09-12T19:56:16.969Z,15.90
2022-09-12T19:58:45.802Z,15.92
2022-09-12T20:01:15.136Z,15.92
2022-09-12T20:03:42.246Z,15.89
2022-09-12T20:06:14.865Z,15.92
2022-09-12T20:08:54.133Z,15.90
2022-09-12T20:11:23.545Z,15.86
2022-09-12T20:13:50.230Z,15.87
2022-09-12T20:16:22.141Z,15.84
2022-09-12T20:18:59.974Z,15.85
2022-09-12T20:21:32.187Z,15.87
2022-09-12T20:24:04.946Z,15.92
2022-09-12T20:26:32.084Z,15.93
2022-09-12T20:28:58.895Z,15.95
2022-09-12T20:31:25.727Z,15.96
2022-09-12T20:33:52.301Z,15.95
2022-09-12T20:36:20.258Z,15.98
2022-09-12T20:38:49.448Z,15.99
2022-09-12T20:41:16.536Z,15.99
2022-09-12T20:43:42.917Z,15.98
2022-09-12T20:46:11.053Z,15.99
2022-09-12T20:48:38.560Z,15.95
2022-09-12T20:51:05.684Z,15.92
2022-09-12T20:53:34.972Z,15.91
2022-09-12T20:56:03.096Z,15.92
2022-09-12T20:58:29.567Z,15.97
2022-09-12T21:00:56.072Z,15.95
2022-09-12T21:03:22.717Z,15.90
2022-09-12T21:05:50.142Z,15.82
2022-09-12T21:08:16.614Z,15.87
2022-09-12T21:10:44.359Z,15.86
2022-09-12T21:13:12.028Z,15.78
2022-09-12T21:15:40.078Z,15.75
2022-09-12T21:18:07.171Z,15.78
2022-09-12T21:20:34.236Z,15.82
2022-09-12T21:23:00.684Z,15.84
2022-09-12T21:25:28.881Z,15.85
2022-09-12T21:27:55.204Z,15.85
2022-09-12T21:30:22.238Z,15.92
2022-09-12T21:32:48.739Z,15.88
2022-09-12T21:35:15.221Z,15.90
2022-09-12T21:37:41.620Z,15.89
2022-09-12T21:40:08.407Z,15.95
2022-09-12T21:42:34.832Z,15.99
2022-09-12T21:45:01.213Z,15.98
2022-09-12T21:47:27.589Z,15.95
2022-09-12T21:49:55.218Z,15.92
2022-09-12T21:52:21.998Z,15.94
2022-09-12T21:54:48.377Z,15.94
2022-09-12T21:57:14.770Z,15.92
2022-09-12T21:59:41.425Z,15.87
2022-09-12T22:02:08.610Z,15.86
2022-09-12T22:04:35.022Z,15.86
2022-09-12T22:07:02.097Z,15.83
2022-09-12T22:09:28.494Z,15.85
2022-09-12T22:11:55.481Z,15.82
2022-09-12T22:14:21.891Z,15.81
2022-09-12T22:16:48.447Z,15.82
2022-09-12T22:19:15.071Z,15.78
2022-09-12T22:22:01.406Z,15.82
2022-09-12T22:24:27.894Z,15.77
2022-09-12T22:26:54.970Z,15.71
2022-09-12T22:29:22.102Z,15.69
2022-09-12T22:31:48.586Z,15.65
2022-09-12T22:34:15.501Z,15.64
2022-09-12T22:36:42.127Z,15.69
2022-09-12T22:39:08.720Z,15.64
2022-09-12T22:41:35.144Z,15.61
2022-09-12T22:44:01.694Z,15.58
2022-09-12T22:46:28.645Z,15.55
2022-09-12T22:48:55.820Z,15.52
2022-09-12T22:51:22.328Z,15.50
2022-09-12T22:53:48.962Z,15.51
2022-09-12T22:56:15.871Z,15.50
2022-09-12T22:58:43.478Z,15.50
2022-09-12T23:01:10.565Z,15.47
2022-09-12T23:03:37.365Z,15.46
2022-09-12T23:06:04.684Z,15.45
2022-09-12T23:08:31.077Z,15.45
2022-09-12T23:11:02.394Z,15.43
2022-09-12T23:13:28.955Z,15.40
2022-09-12T23:16:00.108Z,15.37
2022-09-12T23:18:27.344Z,15.32
2022-09-12T23:21:01.585Z,15.29
2022-09-12T23:23:28.622Z,15.29
2022-09-12T23:26:07.078Z,15.25
2022-09-12T23:28:34.777Z,15.25
2022-09-12T23:31:01.637Z,15.24
2022-09-12T23:33:28.768Z,15.19
2022-09-12T23:36:00.130Z,15.16
2022-09-12T23:38:26.617Z,15.15
2022-09-12T23:40:53.143Z,15.13
2022-09-12T23:43:19.786Z,15.09
2022-09-12T23:45:46.310Z,15.06
2022-09-12T23:48:12.759Z,15.05
2022-09-12T23:50:39.370Z,15.04
2022-09-12T23:53:06.444Z,15.02
2022-09-12T23:55:32.901Z,14.97
2022-09-12T23:57:59.279Z,14.96
